sensor_id;sensor_type;location;lat;lon;timestamp;P1;durP1;ratioP1;P2;durP2;ratioP2
54157;SDS011;40065;49.894;10.358;2023-07-31T00:02:49;4.40;;;1.60;;
54157;SDS011;40065;49.894;10.358;2023-07-31T00:07:51;2.85;;;1.45;;
54157;SDS011;40065;49.894;10.358;2023-07-31T00:12:53;8.27;;;1.58;;
54157;SDS011;40065;49.894;10.358;2023-07-31T00:17:55;4.88;;;1.33;;
54157;SDS011;40065;49.894;10.358;2023-07-31T00:22:57;6.88;;;1.20;;
54157;SDS011;40065;49.894;10.358;2023-07-31T00:27:58;7.68;;;1.67;;
54157;SDS011;40065;49.894;10.358;2023-07-31T00:33:00;4.65;;;1.48;;
54157;SDS011;40065;49.894;10.358;2023-07-31T00:38:03;3.47;;;1.15;;
54157;SDS011;40065;49.894;10.358;2023-07-31T00:43:07;6.17;;;1.40;;
54157;SDS011;40065;49.894;10.358;2023-07-31T00:48:09;4.80;;;1.40;;
54157;SDS011;40065;49.894;10.358;2023-07-31T00:53:11;4.50;;;1.60;;
54157;SDS011;40065;49.894;10.358;2023-07-31T00:58:13;3.78;;;1.38;;
54157;SDS011;40065;49.894;10.358;2023-07-31T01:03:15;6.05;;;1.42;;
54157;SDS011;40065;49.894;10.358;2023-07-31T01:13:31;3.65;;;1.15;;
54157;SDS011;40065;49.894;10.358;2023-07-31T01:18:33;5.07;;;1.20;;
54157;SDS011;40065;49.894;10.358;2023-07-31T01:23:42;8.60;;;1.50;;
54157;SDS011;40065;49.894;10.358;2023-07-31T01:29:09;4.80;;;1.25;;
54157;SDS011;40065;49.894;10.358;2023-07-31T01:34:17;6.10;;;1.40;;
54157;SDS011;40065;49.894;10.358;2023-07-31T01:39:20;7.17;;;1.40;;
54157;SDS011;40065;49.894;10.358;2023-07-31T01:44:22;4.28;;;1.27;;
54157;SDS011;40065;49.894;10.358;2023-07-31T01:49:24;3.75;;;1.20;;
54157;SDS011;40065;49.894;10.358;2023-07-31T01:54:26;3.70;;;1.38;;
54157;SDS011;40065;49.894;10.358;2023-07-31T01:59:28;3.65;;;1.38;;
54157;SDS011;40065;49.894;10.358;2023-07-31T02:04:30;5.35;;;1.50;;
54157;SDS011;40065;49.894;10.358;2023-07-31T02:09:32;5.20;;;1.50;;
54157;SDS011;40065;49.894;10.358;2023-07-31T02:14:34;3.22;;;1.10;;
54157;SDS011;40065;49.894;10.358;2023-07-31T02:19:36;4.38;;;1.40;;
54157;SDS011;40065;49.894;10.358;2023-07-31T02:24:37;4.15;;;1.33;;
54157;SDS011;40065;49.894;10.358;2023-07-31T02:29:39;2.85;;;1.35;;
54157;SDS011;40065;49.894;10.358;2023-07-31T02:34:41;3.53;;;1.70;;
54157;SDS011;40065;49.894;10.358;2023-07-31T02:39:43;3.25;;;1.40;;
54157;SDS011;40065;49.894;10.358;2023-07-31T02:44:45;9.25;;;1.50;;
54157;SDS011;40065;49.894;10.358;2023-07-31T02:49:47;5.80;;;1.70;;
54157;SDS011;40065;49.894;10.358;2023-07-31T02:54:49;5.72;;;1.50;;
54157;SDS011;40065;49.894;10.358;2023-07-31T02:59:50;3.47;;;1.42;;
54157;SDS011;40065;49.894;10.358;2023-07-31T03:04:52;3.45;;;1.20;;
54157;SDS011;40065;49.894;10.358;2023-07-31T03:09:54;4.75;;;1.30;;
54157;SDS011;40065;49.894;10.358;2023-07-31T03:14:56;5.75;;;1.75;;
54157;SDS011;40065;49.894;10.358;2023-07-31T03:19:58;4.57;;;1.30;;
54157;SDS011;40065;49.894;10.358;2023-07-31T03:25:01;5.68;;;1.30;;
54157;SDS011;40065;49.894;10.358;2023-07-31T03:30:04;4.20;;;1.40;;
54157;SDS011;40065;49.894;10.358;2023-07-31T03:35:06;4.45;;;1.20;;
54157;SDS011;40065;49.894;10.358;2023-07-31T03:40:08;4.70;;;1.50;;
54157;SDS011;40065;49.894;10.358;2023-07-31T03:45:11;5.35;;;1.50;;
54157;SDS011;40065;49.894;10.358;2023-07-31T03:50:13;3.58;;;1.42;;
54157;SDS011;40065;49.894;10.358;2023-07-31T03:55:15;5.65;;;1.48;;
54157;SDS011;40065;49.894;10.358;2023-07-31T04:00:17;5.75;;;1.77;;
54157;SDS011;40065;49.894;10.358;2023-07-31T04:05:19;4.63;;;1.63;;
54157;SDS011;40065;49.894;10.358;2023-07-31T04:10:21;5.30;;;1.52;;
54157;SDS011;40065;49.894;10.358;2023-07-31T04:15:22;6.75;;;1.60;;
54157;SDS011;40065;49.894;10.358;2023-07-31T04:20:24;6.18;;;1.55;;
54157;SDS011;40065;49.894;10.358;2023-07-31T04:25:26;6.78;;;2.10;;
54157;SDS011;40065;49.894;10.358;2023-07-31T04:30:28;5.53;;;1.50;;
54157;SDS011;40065;49.894;10.358;2023-07-31T04:35:30;4.78;;;1.67;;
54157;SDS011;40065;49.894;10.358;2023-07-31T04:40:32;8.25;;;1.77;;
54157;SDS011;40065;49.894;10.358;2023-07-31T04:45:33;5.07;;;1.60;;
54157;SDS011;40065;49.894;10.358;2023-07-31T04:50:35;4.78;;;1.60;;
54157;SDS011;40065;49.894;10.358;2023-07-31T04:55:37;4.93;;;1.50;;
54157;SDS011;40065;49.894;10.358;2023-07-31T05:00:39;5.72;;;1.67;;
54157;SDS011;40065;49.894;10.358;2023-07-31T05:05:41;6.13;;;1.90;;
54157;SDS011;40065;49.894;10.358;2023-07-31T05:10:43;5.88;;;1.70;;
54157;SDS011;40065;49.894;10.358;2023-07-31T05:15:45;4.38;;;1.92;;
54157;SDS011;40065;49.894;10.358;2023-07-31T05:20:47;4.15;;;1.50;;
54157;SDS011;40065;49.894;10.358;2023-07-31T05:25:48;4.47;;;1.75;;
54157;SDS011;40065;49.894;10.358;2023-07-31T05:30:50;4.13;;;1.55;;
54157;SDS011;40065;49.894;10.358;2023-07-31T05:35:52;8.15;;;2.17;;
54157;SDS011;40065;49.894;10.358;2023-07-31T05:40:54;4.85;;;1.60;;
54157;SDS011;40065;49.894;10.358;2023-07-31T05:45:56;4.85;;;2.00;;
54157;SDS011;40065;49.894;10.358;2023-07-31T05:50:58;6.53;;;2.05;;
54157;SDS011;40065;49.894;10.358;2023-07-31T05:56:00;4.65;;;2.05;;
54157;SDS011;40065;49.894;10.358;2023-07-31T06:01:02;4.18;;;1.60;;
54157;SDS011;40065;49.894;10.358;2023-07-31T06:06:04;8.38;;;1.80;;
54157;SDS011;40065;49.894;10.358;2023-07-31T06:11:07;6.03;;;1.50;;
54157;SDS011;40065;49.894;10.358;2023-07-31T06:16:10;6.03;;;1.60;;
54157;SDS011;40065;49.894;10.358;2023-07-31T06:21:12;4.90;;;1.70;;
54157;SDS011;40065;49.894;10.358;2023-07-31T06:26:14;4.95;;;1.52;;
54157;SDS011;40065;49.894;10.358;2023-07-31T06:31:16;8.65;;;1.52;;
54157;SDS011;40065;49.894;10.358;2023-07-31T06:36:21;4.88;;;1.50;;
54157;SDS011;40065;49.894;10.358;2023-07-31T06:41:23;5.60;;;1.60;;
54157;SDS011;40065;49.894;10.358;2023-07-31T06:46:25;5.28;;;1.55;;
54157;SDS011;40065;49.894;10.358;2023-07-31T06:51:27;5.70;;;1.52;;
54157;SDS011;40065;49.894;10.358;2023-07-31T06:56:30;4.40;;;1.50;;
54157;SDS011;40065;49.894;10.358;2023-07-31T07:01:32;4.63;;;1.77;;
54157;SDS011;40065;49.894;10.358;2023-07-31T07:06:34;4.47;;;1.73;;
54157;SDS011;40065;49.894;10.358;2023-07-31T07:11:36;5.82;;;1.70;;
54157;SDS011;40065;49.894;10.358;2023-07-31T07:16:38;4.60;;;1.60;;
54157;SDS011;40065;49.894;10.358;2023-07-31T07:21:43;5.18;;;1.70;;
54157;SDS011;40065;49.894;10.358;2023-07-31T07:26:44;3.97;;;1.80;;
54157;SDS011;40065;49.894;10.358;2023-07-31T07:31:46;4.05;;;1.55;;
54157;SDS011;40065;49.894;10.358;2023-07-31T07:36:49;4.45;;;1.75;;
54157;SDS011;40065;49.894;10.358;2023-07-31T07:41:51;6.93;;;1.67;;
54157;SDS011;40065;49.894;10.358;2023-07-31T07:46:54;5.10;;;1.60;;
54157;SDS011;40065;49.894;10.358;2023-07-31T07:51:56;5.10;;;1.60;;
54157;SDS011;40065;49.894;10.358;2023-07-31T07:56:58;7.30;;;1.80;;
54157;SDS011;40065;49.894;10.358;2023-07-31T08:02:00;4.30;;;1.70;;
54157;SDS011;40065;49.894;10.358;2023-07-31T08:07:02;4.60;;;1.77;;
54157;SDS011;40065;49.894;10.358;2023-07-31T08:12:05;4.65;;;1.80;;
54157;SDS011;40065;49.894;10.358;2023-07-31T08:17:07;7.47;;;1.58;;
54157;SDS011;40065;49.894;10.358;2023-07-31T08:22:10;5.25;;;2.35;;
54157;SDS011;40065;49.894;10.358;2023-07-31T08:27:12;4.55;;;1.58;;
54157;SDS011;40065;49.894;10.358;2023-07-31T08:32:14;4.57;;;1.67;;
54157;SDS011;40065;49.894;10.358;2023-07-31T08:37:16;3.47;;;1.33;;
54157;SDS011;40065;49.894;10.358;2023-07-31T08:42:18;6.05;;;1.75;;
54157;SDS011;40065;49.894;10.358;2023-07-31T08:47:19;5.90;;;1.52;;
54157;SDS011;40065;49.894;10.358;2023-07-31T08:52:23;3.92;;;1.30;;
54157;SDS011;40065;49.894;10.358;2023-07-31T08:57:25;3.55;;;1.58;;
54157;SDS011;40065;49.894;10.358;2023-07-31T09:02:29;6.20;;;1.60;;
54157;SDS011;40065;49.894;10.358;2023-07-31T09:07:38;5.28;;;1.70;;
54157;SDS011;40065;49.894;10.358;2023-07-31T09:12:40;6.80;;;1.77;;
54157;SDS011;40065;49.894;10.358;2023-07-31T09:17:43;3.22;;;1.40;;
54157;SDS011;40065;49.894;10.358;2023-07-31T09:22:45;5.15;;;1.80;;
54157;SDS011;40065;49.894;10.358;2023-07-31T09:33:10;4.95;;;1.73;;
54157;SDS011;40065;49.894;10.358;2023-07-31T09:38:13;5.50;;;2.05;;
54157;SDS011;40065;49.894;10.358;2023-07-31T09:48:22;5.65;;;1.90;;
54157;SDS011;40065;49.894;10.358;2023-07-31T09:53:30;5.60;;;1.60;;
54157;SDS011;40065;49.894;10.358;2023-07-31T09:58:33;4.68;;;1.77;;
54157;SDS011;40065;49.894;10.358;2023-07-31T10:03:36;4.95;;;1.73;;
54157;SDS011;40065;49.894;10.358;2023-07-31T10:08:40;7.03;;;1.75;;
54157;SDS011;40065;49.894;10.358;2023-07-31T10:13:43;4.68;;;1.55;;
54157;SDS011;40065;49.894;10.358;2023-07-31T10:18:45;4.50;;;1.60;;
54157;SDS011;40065;49.894;10.358;2023-07-31T10:23:48;5.90;;;2.05;;
54157;SDS011;40065;49.894;10.358;2023-07-31T10:28:51;3.83;;;1.60;;
54157;SDS011;40065;49.894;10.358;2023-07-31T10:33:55;5.80;;;2.10;;
54157;SDS011;40065;49.894;10.358;2023-07-31T10:39:00;6.30;;;2.20;;
54157;SDS011;40065;49.894;10.358;2023-07-31T10:44:05;4.80;;;2.05;;
54157;SDS011;40065;49.894;10.358;2023-07-31T10:49:08;5.25;;;1.70;;
54157;SDS011;40065;49.894;10.358;2023-07-31T10:54:14;5.60;;;1.77;;
54157;SDS011;40065;49.894;10.358;2023-07-31T10:59:19;7.22;;;1.75;;
54157;SDS011;40065;49.894;10.358;2023-07-31T11:04:29;6.63;;;1.63;;
54157;SDS011;40065;49.894;10.358;2023-07-31T11:09:33;8.35;;;1.95;;
54157;SDS011;40065;49.894;10.358;2023-07-31T11:14:35;5.45;;;1.88;;
54157;SDS011;40065;49.894;10.358;2023-07-31T11:19:37;4.95;;;1.70;;
54157;SDS011;40065;49.894;10.358;2023-07-31T11:24:39;7.80;;;2.10;;
54157;SDS011;40065;49.894;10.358;2023-07-31T11:29:41;7.93;;;2.22;;
54157;SDS011;40065;49.894;10.358;2023-07-31T11:34:55;7.72;;;2.05;;
54157;SDS011;40065;49.894;10.358;2023-07-31T11:40:00;6.25;;;1.80;;
54157;SDS011;40065;49.894;10.358;2023-07-31T11:45:03;4.30;;;1.90;;
54157;SDS011;40065;49.894;10.358;2023-07-31T11:50:10;4.40;;;1.92;;
54157;SDS011;40065;49.894;10.358;2023-07-31T11:55:13;5.63;;;1.80;;
54157;SDS011;40065;49.894;10.358;2023-07-31T12:00:16;5.15;;;2.10;;
54157;SDS011;40065;49.894;10.358;2023-07-31T12:05:19;6.60;;;2.13;;
54157;SDS011;40065;49.894;10.358;2023-07-31T12:15:29;8.02;;;1.73;;
54157;SDS011;40065;49.894;10.358;2023-07-31T12:20:33;6.65;;;2.20;;
54157;SDS011;40065;49.894;10.358;2023-07-31T12:25:35;5.43;;;2.20;;
54157;SDS011;40065;49.894;10.358;2023-07-31T12:30:38;5.93;;;2.05;;
54157;SDS011;40065;49.894;10.358;2023-07-31T12:35:43;3.67;;;1.73;;
54157;SDS011;40065;49.894;10.358;2023-07-31T12:40:46;5.75;;;1.73;;
54157;SDS011;40065;49.894;10.358;2023-07-31T12:45:48;5.50;;;2.00;;
54157;SDS011;40065;49.894;10.358;2023-07-31T12:50:50;6.40;;;2.40;;
54157;SDS011;40065;49.894;10.358;2023-07-31T12:55:52;5.35;;;2.13;;
54157;SDS011;40065;49.894;10.358;2023-07-31T13:00:56;11.02;;;2.30;;
54157;SDS011;40065;49.894;10.358;2023-07-31T13:05:58;6.95;;;1.80;;
54157;SDS011;40065;49.894;10.358;2023-07-31T13:10:59;9.52;;;2.38;;
54157;SDS011;40065;49.894;10.358;2023-07-31T13:16:01;11.00;;;2.10;;
54157;SDS011;40065;49.894;10.358;2023-07-31T13:21:03;7.47;;;2.08;;
54157;SDS011;40065;49.894;10.358;2023-07-31T13:26:05;5.88;;;2.20;;
54157;SDS011;40065;49.894;10.358;2023-07-31T13:31:07;5.43;;;2.00;;
54157;SDS011;40065;49.894;10.358;2023-07-31T13:36:10;7.15;;;2.10;;
54157;SDS011;40065;49.894;10.358;2023-07-31T13:41:13;6.15;;;2.00;;
54157;SDS011;40065;49.894;10.358;2023-07-31T13:46:14;6.50;;;1.90;;
54157;SDS011;40065;49.894;10.358;2023-07-31T13:51:16;5.90;;;2.35;;
54157;SDS011;40065;49.894;10.358;2023-07-31T13:56:18;7.45;;;2.20;;
54157;SDS011;40065;49.894;10.358;2023-07-31T14:01:20;4.78;;;1.92;;
54157;SDS011;40065;49.894;10.358;2023-07-31T14:06:22;6.10;;;2.15;;
54157;SDS011;40065;49.894;10.358;2023-07-31T14:11:24;8.57;;;2.53;;
54157;SDS011;40065;49.894;10.358;2023-07-31T14:16:27;7.57;;;2.57;;
54157;SDS011;40065;49.894;10.358;2023-07-31T14:21:29;4.93;;;2.33;;
54157;SDS011;40065;49.894;10.358;2023-07-31T14:26:31;6.65;;;2.55;;
54157;SDS011;40065;49.894;10.358;2023-07-31T14:31:33;6.35;;;2.60;;
54157;SDS011;40065;49.894;10.358;2023-07-31T14:36:35;4.78;;;1.90;;
54157;SDS011;40065;49.894;10.358;2023-07-31T14:41:37;9.90;;;2.97;;
54157;SDS011;40065;49.894;10.358;2023-07-31T14:46:39;7.15;;;3.22;;
54157;SDS011;40065;49.894;10.358;2023-07-31T14:51:41;9.70;;;2.35;;
54157;SDS011;40065;49.894;10.358;2023-07-31T14:56:43;5.38;;;2.50;;
54157;SDS011;40065;49.894;10.358;2023-07-31T15:01:44;4.88;;;1.98;;
54157;SDS011;40065;49.894;10.358;2023-07-31T15:06:46;3.60;;;2.10;;
54157;SDS011;40065;49.894;10.358;2023-07-31T15:11:48;4.82;;;2.00;;
54157;SDS011;40065;49.894;10.358;2023-07-31T15:16:50;6.32;;;2.05;;
54157;SDS011;40065;49.894;10.358;2023-07-31T15:21:52;4.93;;;1.90;;
54157;SDS011;40065;49.894;10.358;2023-07-31T15:26:54;5.22;;;2.10;;
54157;SDS011;40065;49.894;10.358;2023-07-31T15:31:56;6.22;;;2.47;;
54157;SDS011;40065;49.894;10.358;2023-07-31T15:36:58;4.57;;;2.20;;
54157;SDS011;40065;49.894;10.358;2023-07-31T15:42:00;5.53;;;2.20;;
54157;SDS011;40065;49.894;10.358;2023-07-31T15:47:02;6.20;;;2.58;;
54157;SDS011;40065;49.894;10.358;2023-07-31T15:52:05;7.00;;;2.10;;
54157;SDS011;40065;49.894;10.358;2023-07-31T15:57:07;5.97;;;2.25;;
54157;SDS011;40065;49.894;10.358;2023-07-31T16:02:09;6.97;;;2.40;;
54157;SDS011;40065;49.894;10.358;2023-07-31T16:07:12;6.55;;;2.17;;
54157;SDS011;40065;49.894;10.358;2023-07-31T16:12:14;5.40;;;2.22;;
54157;SDS011;40065;49.894;10.358;2023-07-31T16:17:16;6.15;;;2.00;;
54157;SDS011;40065;49.894;10.358;2023-07-31T16:22:18;5.70;;;2.13;;
54157;SDS011;40065;49.894;10.358;2023-07-31T16:27:20;5.47;;;2.25;;
54157;SDS011;40065;49.894;10.358;2023-07-31T16:32:25;4.00;;;2.00;;
54157;SDS011;40065;49.894;10.358;2023-07-31T16:37:28;6.80;;;2.03;;
54157;SDS011;40065;49.894;10.358;2023-07-31T16:42:30;6.97;;;2.00;;
54157;SDS011;40065;49.894;10.358;2023-07-31T16:47:32;4.50;;;1.98;;
54157;SDS011;40065;49.894;10.358;2023-07-31T16:52:34;4.55;;;2.20;;
54157;SDS011;40065;49.894;10.358;2023-07-31T16:57:35;5.97;;;2.30;;
54157;SDS011;40065;49.894;10.358;2023-07-31T17:02:37;5.07;;;2.08;;
54157;SDS011;40065;49.894;10.358;2023-07-31T17:07:39;4.20;;;2.28;;
54157;SDS011;40065;49.894;10.358;2023-07-31T17:12:41;6.07;;;2.17;;
54157;SDS011;40065;49.894;10.358;2023-07-31T17:17:44;4.90;;;1.95;;
54157;SDS011;40065;49.894;10.358;2023-07-31T17:22:45;5.13;;;2.20;;
54157;SDS011;40065;49.894;10.358;2023-07-31T17:27:49;4.10;;;2.15;;
54157;SDS011;40065;49.894;10.358;2023-07-31T17:32:54;4.07;;;1.85;;
54157;SDS011;40065;49.894;10.358;2023-07-31T17:37:55;4.85;;;1.92;;
54157;SDS011;40065;49.894;10.358;2023-07-31T17:48:01;5.68;;;1.90;;
54157;SDS011;40065;49.894;10.358;2023-07-31T17:53:03;4.40;;;1.70;;
54157;SDS011;40065;49.894;10.358;2023-07-31T17:58:08;5.68;;;1.88;;
54157;SDS011;40065;49.894;10.358;2023-07-31T18:03:10;4.53;;;1.83;;
54157;SDS011;40065;49.894;10.358;2023-07-31T18:08:14;5.25;;;2.13;;
54157;SDS011;40065;49.894;10.358;2023-07-31T18:13:16;6.65;;;2.10;;
54157;SDS011;40065;49.894;10.358;2023-07-31T18:18:18;5.93;;;2.08;;
54157;SDS011;40065;49.894;10.358;2023-07-31T18:23:19;5.60;;;1.98;;
54157;SDS011;40065;49.894;10.358;2023-07-31T18:28:22;7.57;;;2.28;;
54157;SDS011;40065;49.894;10.358;2023-07-31T18:33:24;7.38;;;2.20;;
54157;SDS011;40065;49.894;10.358;2023-07-31T18:38:25;9.95;;;2.55;;
54157;SDS011;40065;49.894;10.358;2023-07-31T18:43:27;5.97;;;2.08;;
54157;SDS011;40065;49.894;10.358;2023-07-31T18:48:29;4.80;;;2.03;;
54157;SDS011;40065;49.894;10.358;2023-07-31T18:53:32;6.60;;;2.25;;
54157;SDS011;40065;49.894;10.358;2023-07-31T18:58:33;3.70;;;1.90;;
54157;SDS011;40065;49.894;10.358;2023-07-31T19:03:35;4.55;;;2.08;;
54157;SDS011;40065;49.894;10.358;2023-07-31T19:08:38;4.83;;;2.07;;
54157;SDS011;40065;49.894;10.358;2023-07-31T19:13:40;6.00;;;2.20;;
54157;SDS011;40065;49.894;10.358;2023-07-31T19:18:43;6.70;;;2.38;;
54157;SDS011;40065;49.894;10.358;2023-07-31T19:23:45;7.03;;;2.70;;
54157;SDS011;40065;49.894;10.358;2023-07-31T19:28:46;6.70;;;2.53;;
54157;SDS011;40065;49.894;10.358;2023-07-31T19:33:48;4.53;;;2.13;;
54157;SDS011;40065;49.894;10.358;2023-07-31T19:38:50;4.85;;;2.40;;
54157;SDS011;40065;49.894;10.358;2023-07-31T19:43:52;4.13;;;1.92;;
54157;SDS011;40065;49.894;10.358;2023-07-31T19:48:54;7.88;;;2.28;;
54157;SDS011;40065;49.894;10.358;2023-07-31T19:53:56;5.00;;;2.13;;
54157;SDS011;40065;49.894;10.358;2023-07-31T19:58:57;5.28;;;2.75;;
54157;SDS011;40065;49.894;10.358;2023-07-31T20:03:59;5.53;;;2.33;;
54157;SDS011;40065;49.894;10.358;2023-07-31T20:09:01;6.28;;;2.40;;
54157;SDS011;40065;49.894;10.358;2023-07-31T20:14:05;5.82;;;2.63;;
54157;SDS011;40065;49.894;10.358;2023-07-31T20:19:08;5.13;;;2.55;;
54157;SDS011;40065;49.894;10.358;2023-07-31T20:24:10;7.47;;;2.50;;
54157;SDS011;40065;49.894;10.358;2023-07-31T20:29:13;6.72;;;2.50;;
54157;SDS011;40065;49.894;10.358;2023-07-31T20:34:14;9.80;;;2.92;;
54157;SDS011;40065;49.894;10.358;2023-07-31T20:39:16;5.22;;;2.58;;
54157;SDS011;40065;49.894;10.358;2023-07-31T20:44:19;6.65;;;2.55;;
54157;SDS011;40065;49.894;10.358;2023-07-31T20:49:21;5.35;;;2.33;;
54157;SDS011;40065;49.894;10.358;2023-07-31T20:54:23;7.75;;;2.80;;
54157;SDS011;40065;49.894;10.358;2023-07-31T20:59:26;6.28;;;2.97;;
54157;SDS011;40065;49.894;10.358;2023-07-31T21:04:28;10.30;;;3.47;;
54157;SDS011;40065;49.894;10.358;2023-07-31T21:09:30;8.02;;;3.00;;
54157;SDS011;40065;49.894;10.358;2023-07-31T21:14:32;6.05;;;3.05;;
54157;SDS011;40065;49.894;10.358;2023-07-31T21:19:34;8.18;;;3.45;;
54157;SDS011;40065;49.894;10.358;2023-07-31T21:24:36;6.38;;;2.90;;
54157;SDS011;40065;49.894;10.358;2023-07-31T21:29:38;5.72;;;2.85;;
54157;SDS011;40065;49.894;10.358;2023-07-31T21:34:40;5.05;;;2.78;;
54157;SDS011;40065;49.894;10.358;2023-07-31T21:39:44;5.32;;;2.92;;
54157;SDS011;40065;49.894;10.358;2023-07-31T21:44:46;4.53;;;2.60;;
54157;SDS011;40065;49.894;10.358;2023-07-31T21:49:48;4.78;;;2.70;;
54157;SDS011;40065;49.894;10.358;2023-07-31T21:54:50;5.45;;;2.95;;
54157;SDS011;40065;49.894;10.358;2023-07-31T21:59:52;6.90;;;3.03;;
54157;SDS011;40065;49.894;10.358;2023-07-31T22:04:53;5.95;;;2.95;;
54157;SDS011;40065;49.894;10.358;2023-07-31T22:09:55;7.32;;;2.97;;
54157;SDS011;40065;49.894;10.358;2023-07-31T22:14:57;7.43;;;3.05;;
54157;SDS011;40065;49.894;10.358;2023-07-31T22:19:59;5.72;;;3.38;;
54157;SDS011;40065;49.894;10.358;2023-07-31T22:25:01;7.18;;;3.08;;
54157;SDS011;40065;49.894;10.358;2023-07-31T22:30:03;9.80;;;3.60;;
54157;SDS011;40065;49.894;10.358;2023-07-31T22:35:05;6.25;;;3.47;;
54157;SDS011;40065;49.894;10.358;2023-07-31T22:40:07;8.75;;;3.42;;
54157;SDS011;40065;49.894;10.358;2023-07-31T22:45:10;9.00;;;3.75;;
54157;SDS011;40065;49.894;10.358;2023-07-31T22:50:12;7.38;;;3.72;;
54157;SDS011;40065;49.894;10.358;2023-07-31T22:55:14;6.90;;;3.72;;
54157;SDS011;40065;49.894;10.358;2023-07-31T23:00:16;9.73;;;3.60;;
54157;SDS011;40065;49.894;10.358;2023-07-31T23:05:18;6.25;;;3.55;;
54157;SDS011;40065;49.894;10.358;2023-07-31T23:10:20;7.75;;;4.18;;
54157;SDS011;40065;49.894;10.358;2023-07-31T23:15:22;7.28;;;4.05;;
54157;SDS011;40065;49.894;10.358;2023-07-31T23:20:24;9.27;;;4.60;;
54157;SDS011;40065;49.894;10.358;2023-07-31T23:25:25;10.52;;;5.15;;
54157;SDS011;40065;49.894;10.358;2023-07-31T23:30:27;8.65;;;4.40;;
54157;SDS011;40065;49.894;10.358;2023-07-31T23:35:29;9.88;;;4.28;;
54157;SDS011;40065;49.894;10.358;2023-07-31T23:40:31;11.18;;;4.72;;
54157;SDS011;40065;49.894;10.358;2023-07-31T23:45:33;9.00;;;4.55;;
54157;SDS011;40065;49.894;10.358;2023-07-31T23:50:35;7.82;;;4.40;;
54157;SDS011;40065;49.894;10.358;2023-07-31T23:55:37;9.43;;;5.10;;
